Terminal Aerodrome Forecast
Issued by NWS Albany, NY

Home | Current Version | Previous Version | Text Only | Print | Product List | Glossary On
Versions: 1 2 3 4 5 6 7 8 9 10 11 12 13 14 15 16 17 18 19 20
000
FTUS41 KALY 260542
TAFGFL
TAF
KGFL 260542Z 2606/2706 VRB04KT P6SM BKN200
      TEMPO 2608/2610 2SM BR SCT003
     FM261100 24005KT P6SM SCT035 SCT200
     FM261500 26008KT P6SM SCT045
     FM261800 30010G16KT P6SM BKN045
     FM270000 31006KT P6SM FEW045=

USA.gov is the U.S. government's official web portal to all federal, state and local government web resources and services.